Time;durP1;ratioP1;P1;durP2;ratioP2;P2;SDS_P1;SDS_P2;PMS_P1;PMS_P2;Temp;Humidity;BMP_temperature;BMP_pressure;BME280_temperature;BME280_humidity;BME280_pressure;Samples;Min_cycle;Max_cycle;Signal;HPM_P1;HPM_P2
2021/10/24 01:39:54;;;;;;;9.73;5.40;;;;;;;4.64;75.39;100981.22;1087779;54;20034;-81
2021/10/24 01:41:03;;;;;;;10.20;6.18;;;;;;;4.61;76.01;100981.41;1093670;39;20847;-80
2021/10/24 01:42:20;;;;;;;10.23;6.65;;;;;;;4.55;75.90;100969.38;1087815;54;20035;-78
2021/10/24 01:43:25;;;;;;;10.95;6.35;;;;;;;4.52;75.93;100972.16;1087890;54;20041;-80
2021/10/24 01:44:49;;;;;;;11.13;7.05;;;;;;;4.41;76.62;100974.53;1087888;54;20071;-81
2021/10/24 01:45:54;;;;;;;11.88;7.18;;;;;;;4.41;76.41;100963.94;1087972;54;20014;-80
2021/10/24 01:46:56;;;;;;;10.88;7.22;;;;;;;4.46;76.21;100968.06;1087872;54;20051;-80
2021/10/24 01:48:03;;;;;;;12.30;7.18;;;;;;;4.51;76.11;100973.97;1087848;54;21106;-82
2021/10/24 01:49:05;;;;;;;11.55;5.78;;;;;;;4.49;75.99;100959.06;1087901;54;20015;-79
2021/10/24 01:50:10;;;;;;;9.50;6.88;;;;;;;4.42;76.23;100971.81;1087711;54;20018;-81
2021/10/24 01:51:18;;;;;;;10.18;7.07;;;;;;;4.42;76.48;100976.25;1087862;54;20054;-81
2021/10/24 01:52:20;;;;;;;10.80;6.32;;;;;;;4.48;76.34;100979.44;1087880;54;20045;-78
2021/10/24 01:53:27;;;;;;;10.52;6.38;;;;;;;4.64;75.79;100970.63;1087801;54;20022;-80
2021/10/24 01:54:36;;;;;;;8.90;5.65;;;;;;;4.77;75.53;100969.03;1087924;54;20029;-79
2021/10/24 01:55:41;;;;;;;10.10;6.07;;;;;;;4.79;75.37;100959.22;1090747;39;20823;-80
2021/10/24 01:56:54;;;;;;;10.98;5.65;;;;;;;4.83;75.29;100954.59;1087885;54;20019;-79
2021/10/24 01:57:58;;;;;;;9.82;5.32;;;;;;;4.87;75.09;100960.56;1087938;54;20980;-78
2021/10/24 01:59:22;;;;;;;8.20;5.10;;;;;;;4.89;74.95;100959.53;1087797;54;20038;-78
2021/10/24 02:00:30;;;;;;;7.93;4.88;;;;;;;4.92;74.77;100959.38;1087971;54;20833;-78
2021/10/24 02:01:35;;;;;;;8.43;4.78;;;;;;;4.97;74.68;100953.81;1087885;54;20030;-78
2021/10/24 02:02:37;;;;;;;8.52;5.20;;;;;;;4.99;74.61;100958.09;1087858;54;20033;-79
2021/10/24 02:03:42;;;;;;;8.32;5.20;;;;;;;5.00;74.70;100951.84;1087894;54;20038;-78
2021/10/24 02:05:11;;;;;;;9.68;5.22;;;;;;;4.93;74.60;100954.91;1087788;54;20038;-79
2021/10/24 02:06:15;;;;;;;8.20;4.93;;;;;;;4.96;74.64;100949.47;1089909;39;20718;-80
2021/10/24 02:07:26;;;;;;;8.60;4.47;;;;;;;4.97;74.34;100949.38;1087715;54;20034;-80
2021/10/24 02:08:37;;;;;;;9.15;4.75;;;;;;;4.98;74.47;100948.44;1087832;54;20023;-80
2021/10/24 02:09:39;;;;;;;6.68;4.03;;;;;;;5.02;74.46;100957.06;1087775;54;20039;-80
2021/10/24 02:10:48;;;;;;;7.55;4.50;;;;;;;5.03;74.37;100950.81;1087824;54;20127;-79
2021/10/24 02:11:50;;;;;;;7.40;4.38;;;;;;;5.04;74.29;100952.53;1087909;54;20789;-79
2021/10/24 02:13:17;;;;;;;7.30;4.40;;;;;;;5.05;74.42;100951.59;1088077;54;20034;-80
2021/10/24 02:14:19;;;;;;;8.30;4.68;;;;;;;5.06;74.16;100953.31;1088039;54;20058;-78
2021/10/24 02:15:38;;;;;;;7.30;4.20;;;;;;;5.08;74.29;100953.19;1088118;54;20015;-79
2021/10/24 02:16:39;;;;;;;6.95;4.00;;;;;;;5.11;74.19;100953.88;1088404;54;20694;-80
2021/10/24 02:17:44;;;;;;;6.40;3.47;;;;;;;5.11;74.07;100953.88;1088434;54;20035;-80
2021/10/24 02:18:46;;;;;;;8.52;4.38;;;;;;;5.12;74.30;100952.94;1088416;54;20777;-79
2021/10/24 02:20:07;;;;;;;8.68;4.72;;;;;;;5.10;74.23;100951.31;1088351;54;20027;-79
2021/10/24 02:21:11;;;;;;;;;;;;;;;5.04;74.22;100947.22;1088481;54;20666;-79
2021/10/24 02:22:27;;;;;;;9.30;4.57;;;;;;;5.06;74.21;100953.31;1088437;54;19949;-80
2021/10/24 02:23:31;;;;;;;6.97;4.43;;;;;;;5.09;74.04;100950.50;1088422;54;20019;-80
2021/10/24 02:24:33;;;;;;;8.13;4.00;;;;;;;5.13;74.04;100946.69;1088535;54;20015;-78
2021/10/24 02:25:38;;;;;;;5.78;3.80;;;;;;;5.14;73.90;100947.56;1096205;31;21026;-79
2021/10/24 02:26:40;;;;;;;7.38;4.25;;;;;;;5.19;73.84;100936.72;1088387;54;20038;-79
2021/10/24 02:27:46;;;;;;;7.85;4.32;;;;;;;5.16;73.88;100937.72;1088463;54;20709;-81
2021/10/24 02:29:05;;;;;;;7.03;4.72;;;;;;;5.13;74.32;100941.41;1088415;54;20023;-79
2021/10/24 02:30:09;;;;;;;8.25;4.63;;;;;;;5.16;73.83;100945.66;1088407;54;20023;-79
2021/10/24 02:31:20;;;;;;;7.22;4.10;;;;;;;5.15;74.03;100939.53;1088422;54;20078;-81
2021/10/24 02:32:22;;;;;;;6.88;4.00;;;;;;;5.17;73.77;100943.88;1088509;54;20026;-79
2021/10/24 02:33:41;;;;;;;6.30;4.10;;;;;;;5.15;73.90;100942.19;1088477;47;20034;-78
2021/10/24 02:34:43;;;;;;;7.68;4.75;;;;;;;5.16;74.01;100937.72;1088308;54;20058;-81
2021/10/24 02:35:49;;;;;;;6.78;3.80;;;;;;;5.19;73.90;100939.34;1088486;54;20034;-81
2021/10/24 02:36:51;;;;;;;7.93;4.22;;;;;;;5.17;74.06;100942.06;1087947;54;20034;-81
2021/10/24 02:37:58;;;;;;;7.88;4.43;;;;;;;5.17;74.06;100942.06;1088420;54;20018;-80
2021/10/24 02:39:03;;;;;;;6.68;4.20;;;;;;;5.18;74.19;100941.13;1088419;54;20734;-80
2021/10/24 02:40:10;;;;;;;7.80;4.20;;;;;;;5.18;74.03;100929.69;1088267;54;20030;-79
2021/10/24 02:41:12;;;;;;;7.53;4.47;;;;;;;5.17;73.80;100936.78;1089807;46;20026;-79
2021/10/24 02:42:24;;;;;;;7.43;4.13;;;;;;;5.15;74.01;100939.53;1088435;54;20018;-80
2021/10/24 02:43:29;;;;;;;8.05;4.43;;;;;;;5.14;73.97;100926.38;1088375;54;20045;-81
2021/10/24 02:44:38;;;;;;;8.57;4.22;;;;;;;5.11;73.84;100932.69;1088449;54;20034;-80
2021/10/24 02:45:42;;;;;;;7.60;4.50;;;;;;;5.11;73.74;100937.13;1088423;54;20030;-81
2021/10/24 02:46:44;;;;;;;6.50;4.57;;;;;;;5.10;73.88;100936.25;1088377;54;20033;-78
2021/10/24 02:47:48;;;;;;;7.72;4.65;;;;;;;5.09;73.98;100937.22;1088388;54;20019;-80
2021/10/24 02:48:50;;;;;;;7.63;3.80;;;;;;;5.09;73.78;100933.72;1088421;54;20046;-81
2021/10/24 02:49:55;;;;;;;9.30;4.40;;;;;;;5.08;73.77;100935.53;1088308;54;20033;-79
2021/10/24 02:51:12;;;;;;;7.32;4.28;;;;;;;5.07;73.59;100925.00;1088327;54;20050;-80
2021/10/24 02:52:17;;;;;;;6.80;4.10;;;;;;;5.08;74.01;100939.94;1088383;54;20022;-81
2021/10/24 02:53:22;;;;;;;6.43;3.80;;;;;;;5.10;73.78;100927.47;1088328;54;20091;-80
2021/10/24 02:54:27;;;;;;;7.25;4.47;;;;;;;5.09;73.61;100923.97;1090006;39;20658;-80
2021/10/24 02:55:29;;;;;;;7.38;4.03;;;;;;;5.11;73.74;100922.06;1088396;39;20657;-79
2021/10/24 02:56:45;;;;;;;6.32;4.15;;;;;;;5.07;73.96;100915.25;1088299;54;20663;-79
2021/10/24 02:57:47;;;;;;;8.15;4.00;;;;;;;5.09;73.52;100920.47;1089117;39;20709;-78
2021/10/24 02:58:52;;;;;;;8.25;4.90;;;;;;;5.02;73.71;100917.31;1088248;54;20769;-80
2021/10/24 02:59:54;;;;;;;9.25;5.00;;;;;;;4.98;73.68;100921.91;1088324;54;20029;-79
2021/10/24 03:01:11;;;;;;;9.45;5.10;;;;;;;4.92;73.87;100922.28;1093447;39;20733;-80
2021/10/24 03:02:12;;;;;;;10.02;5.07;;;;;;;4.92;73.91;100916.09;1088307;54;20702;-79
2021/10/24 03:03:30;;;;;;;10.82;4.82;;;;;;;4.90;73.84;100925.97;1088354;54;20018;-79
2021/10/24 03:04:32;;;;;;;8.55;4.97;;;;;;;4.89;74.01;100925.09;1088437;54;20027;-81
2021/10/24 03:05:36;;;;;;;10.63;4.60;;;;;;;4.89;74.03;100926.91;1088411;54;20031;-80
2021/10/24 03:06:39;;;;;;;10.23;5.43;;;;;;;4.88;74.02;100923.38;1088428;54;20042;-80
2021/10/24 03:07:47;;;;;;;8.35;4.57;;;;;;;4.89;74.17;100922.44;1088325;54;20086;-78
2021/10/24 03:08:51;;;;;;;7.78;4.43;;;;;;;4.91;74.08;100919.72;1088321;54;20038;-78
2021/10/24 03:09:59;;;;;;;7.18;4.28;;;;;;;4.96;74.10;100922.97;1088283;54;20038;-80
2021/10/24 03:11:01;;;;;;;7.30;4.38;;;;;;;4.98;73.82;100915.78;1088421;54;20026;-79
2021/10/24 03:12:06;;;;;;;7.30;3.90;;;;;;;4.99;73.71;100917.50;1088357;54;20034;-80
2021/10/24 03:13:08;;;;;;;6.78;4.25;;;;;;;4.98;73.83;100918.44;1090415;46;20817;-79
2021/10/24 03:14:28;;;;;;;8.15;4.80;;;;;;;4.95;73.88;100921.25;1088308;54;20027;-80
2021/10/24 03:15:29;;;;;;;9.70;4.15;;;;;;;4.94;73.84;100915.09;1090167;46;20035;-80
2021/10/24 03:16:36;;;;;;;10.63;5.20;;;;;;;4.88;74.10;100917.25;1088333;54;20045;-79
2021/10/24 03:17:38;;;;;;;8.18;4.80;;;;;;;4.88;74.03;100912.78;1088597;54;20018;-79
2021/10/24 03:18:43;;;;;;;8.13;4.45;;;;;;;4.88;74.04;100918.09;1088214;54;20709;-80
2021/10/24 03:19:45;;;;;;;8.10;4.93;;;;;;;4.87;74.06;100918.19;1088302;54;20026;-80
2021/10/24 03:20:54;;;;;;;7.70;4.78;;;;;;;4.89;73.95;100917.16;1088320;54;20034;-80
2021/10/24 03:21:56;;;;;;;7.47;4.50;;;;;;;4.83;74.19;100918.34;1088162;54;20062;-80
2021/10/24 03:23:15;;;;;;;8.88;5.03;;;;;;;4.84;74.03;100914.75;1088341;54;20027;-80
2021/10/24 03:24:20;;;;;;;9.25;5.40;;;;;;;4.89;74.01;100916.31;1088255;54;20035;-81
2021/10/24 03:25:31;;;;;;;7.90;4.68;;;;;;;4.92;74.00;100916.09;1088309;54;20083;-79
2021/10/24 03:26:34;;;;;;;8.85;5.05;;;;;;;4.94;73.72;100914.22;1088348;54;20045;-80
2021/10/24 03:27:39;;;;;;;8.50;4.40;;;;;;;4.96;73.69;100915.00;1098234;39;20638;-79
2021/10/24 03:28:41;;;;;;;8.60;4.78;;;;;;;4.89;73.66;100914.50;1088284;54;20031;-79
2021/10/24 03:29:51;;;;;;;9.00;5.22;;;;;;;4.91;73.67;100919.72;1088297;54;20015;-80
2021/10/24 03:30:55;;;;;;;7.20;4.68;;;;;;;4.88;73.74;100920.72;1088332;54;20058;-80
2021/10/24 03:31:59;;;;;;;9.60;5.57;;;;;;;4.88;73.82;100917.25;1088136;54;20019;-80
2021/10/24 03:33:03;;;;;;;7.90;5.55;;;;;;;4.85;73.86;100920.94;1088253;54;20022;-78
2021/10/24 03:34:07;;;;;;;8.13;5.03;;;;;;;4.83;73.87;100920.16;1091714;39;20603;-80
2021/10/24 03:35:20;;;;;;;9.05;4.68;;;;;;;4.75;74.27;100928.53;1088249;54;20022;-81
2021/10/24 03:36:25;;;;;;;7.88;4.40;;;;;;;4.76;73.94;100929.41;1088288;54;20030;-79
2021/10/24 03:37:26;;;;;;;8.20;4.30;;;;;;;4.73;74.05;100929.56;1087979;54;20034;-80
2021/10/24 03:38:31;;;;;;;7.53;4.38;;;;;;;4.74;74.37;100929.47;1088242;54;20030;-79
2021/10/24 03:39:43;;;;;;;7.22;4.38;;;;;;;4.75;74.18;100925.03;1088333;54;20045;-79
2021/10/24 03:40:49;;;;;;;8.43;4.53;;;;;;;4.75;74.06;100932.97;1088372;54;20019;-79
2021/10/24 03:41:50;;;;;;;8.23;4.55;;;;;;;4.77;73.89;100929.28;1089376;39;20704;-79
2021/10/24 03:42:55;;;;;;;6.63;4.20;;;;;;;4.77;74.10;100929.28;1088319;54;20049;-80
2021/10/24 03:43:57;;;;;;;7.72;4.45;;;;;;;4.81;73.85;100925.53;1088543;46;20023;-81
2021/10/24 03:45:09;;;;;;;6.80;4.22;;;;;;;4.79;73.82;100921.25;1088317;54;20041;-78
2021/10/24 03:46:11;;;;;;;6.60;4.18;;;;;;;4.76;73.91;100927.59;1088323;54;20041;-80
2021/10/24 03:47:32;;;;;;;8.27;4.30;;;;;;;4.78;73.98;100931.00;1088295;54;20034;-79
2021/10/24 03:48:52;;;;;;;7.32;3.80;;;;;;;4.79;74.07;100929.19;1088365;54;20034;-79
2021/10/24 03:49:54;;;;;;;7.88;4.05;;;;;;;4.76;74.13;100932.03;1088338;54;20022;-80
2021/10/24 03:51:04;;;;;;;8.85;4.05;;;;;;;4.77;74.17;100921.34;1088370;54;20052;-79
2021/10/24 03:52:06;;;;;;;7.97;3.90;;;;;;;4.80;74.08;100931.78;1089097;39;20682;-79
2021/10/24 03:53:38;;;;;;;8.68;3.85;;;;;;;4.82;73.78;100931.69;1088315;54;20046;-79
2021/10/24 03:54:43;;;;;;;7.68;3.72;;;;;;;4.82;73.97;100932.53;1088207;54;20019;-79
2021/10/24 03:55:49;;;;;;;6.55;3.65;;;;;;;4.84;73.61;100935.94;1088340;54;20057;-79
2021/10/24 03:56:51;;;;;;;7.22;3.97;;;;;;;4.82;73.75;100932.53;1088346;54;20045;-80
2021/10/24 03:58:05;;;;;;;6.55;3.67;;;;;;;4.84;73.92;100925.34;1088219;54;20042;-80
2021/10/24 04:10:04;;;;;;;7.65;4.07;;;;;;;4.81;73.54;100933.50;1088285;54;20042;-80
2021/10/24 04:11:06;;;;;;;7.43;3.83;;;;;;;4.76;73.58;100940.84;1088278;54;20098;-81
2021/10/24 04:12:17;;;;;;;8.73;4.63;;;;;;;4.61;73.86;100947.00;1088264;54;20734;-79
2021/10/24 04:13:19;;;;;;;11.52;4.72;;;;;;;4.32;74.40;100947.63;1088313;54;20082;-80
2021/10/24 04:14:28;;;;;;;10.60;6.32;;;;;;;4.10;75.07;100939.97;1088284;54;20025;-80
2021/10/24 04:15:30;;;;;;;10.50;5.65;;;;;;;4.07;75.60;100937.47;1088200;54;20026;-81
2021/10/24 04:16:39;;;;;;;11.00;5.68;;;;;;;3.95;75.62;100943.44;1088340;47;20034;-79
2021/10/24 04:17:43;;;;;;;10.05;5.93;;;;;;;3.86;75.81;100948.28;1088311;54;20039;-80
2021/10/24 04:19:03;;;;;;;12.88;6.10;;;;;;;3.76;76.52;100944.38;1088336;54;20094;-78
2021/10/24 04:20:07;;;;;;;10.38;6.13;;;;;;;3.68;76.60;100951.88;1088252;54;20744;-79
2021/10/24 04:21:14;;;;;;;8.73;5.53;;;;;;;3.72;76.36;100956.03;1088217;54;20034;-82
2021/10/24 04:22:16;;;;;;;10.30;5.78;;;;;;;3.59;76.39;100950.53;1088361;54;20038;-78
2021/10/24 04:23:42;;;;;;;10.65;5.90;;;;;;;3.51;77.08;100953.53;1088186;54;20023;-79
2021/10/24 04:24:44;;;;;;;9.15;5.40;;;;;;;3.47;77.01;100952.00;1088303;54;20026;-79
2021/10/24 04:25:51;;;;;;;9.20;5.57;;;;;;;3.45;77.09;100953.88;1088322;54;20021;-78
2021/10/24 04:26:53;;;;;;;10.27;5.78;;;;;;;3.49;76.74;100950.16;1088265;54;20023;-80
2021/10/24 04:27:58;;;;;;;8.88;5.10;;;;;;;3.46;76.93;100945.00;1088408;54;20026;-80
2021/10/24 04:28:59;;;;;;;9.30;5.75;;;;;;;3.49;76.90;100944.84;1088231;54;20874;-78
2021/10/24 04:30:05;;;;;;;15.63;6.28;;;;;;;3.52;76.73;100952.63;1088407;54;20056;-80
2021/10/24 04:31:09;;;;;;;8.48;5.40;;;;;;;3.62;76.52;100946.88;1088307;54;20030;-78
2021/10/24 04:32:12;;;;;;;17.17;5.80;;;;;;;3.73;76.03;100945.38;1088263;54;20777;-79
2021/10/24 04:33:17;;;;;;;8.13;4.70;;;;;;;3.87;75.68;100939.38;1088359;54;20057;-79
2021/10/24 04:34:46;;;;;;;6.80;4.78;;;;;;;3.96;75.28;100945.16;1089679;46;20062;-79
2021/10/24 04:35:50;;;;;;;8.75;4.90;;;;;;;4.02;75.29;100936.88;1088329;54;20050;-79
2021/10/24 04:37:10;;;;;;;6.63;3.88;;;;;;;4.09;75.13;100935.59;1088300;54;20034;-80
2021/10/24 04:38:13;;;;;;;6.38;3.97;;;;;;;4.13;74.72;100934.53;1088418;54;20023;-79
2021/10/24 04:39:20;;;;;;;6.85;4.00;;;;;;;4.18;74.75;100939.56;1088216;54;20030;-80
2021/10/24 04:40:28;;;;;;;6.05;3.60;;;;;;;4.20;74.83;100945.66;1088457;54;20034;-78
2021/10/24 04:41:35;;;;;;;8.30;4.10;;;;;;;4.19;74.60;100939.47;1088440;54;20074;-78
2021/10/24 04:42:37;;;;;;;7.10;4.07;;;;;;;4.21;74.57;100942.91;1088428;54;20031;-78
2021/10/24 04:44:24;;;;;;;7.60;4.50;;;;;;;4.26;74.60;100937.38;1088499;54;20046;-79
2021/10/24 04:45:26;;;;;;;7.45;3.78;;;;;;;4.30;74.31;100946.00;1088524;54;20034;-79
2021/10/24 04:46:59;;;;;;;6.25;3.63;;;;;;;4.32;74.29;100937.03;1088537;54;20725;-78
2021/10/24 04:48:05;;;;;;;6.53;4.10;;;;;;;4.35;74.13;100938.66;1088448;54;20023;-80
2021/10/24 04:49:09;;;;;;;6.53;3.70;;;;;;;4.39;74.05;100937.56;1088463;54;20037;-79
2021/10/24 04:50:18;;;;;;;6.50;3.92;;;;;;;4.23;73.86;100940.16;1088510;54;20698;-79
2021/10/24 04:51:22;;;;;;;7.55;4.18;;;;;;;4.29;74.05;100934.56;1088460;54;20085;-81
2021/10/24 04:52:25;;;;;;;6.35;3.72;;;;;;;4.35;73.89;100933.34;1088409;54;20034;-77
2021/10/24 04:53:29;;;;;;;8.18;4.50;;;;;;;4.37;74.06;100936.78;1088373;54;20042;-79
2021/10/24 04:54:51;;;;;;;8.70;4.10;;;;;;;4.37;73.55;100937.66;1088416;54;20029;-80
2021/10/24 04:55:56;;;;;;;6.72;4.30;;;;;;;4.39;73.82;100934.06;1088487;54;20029;-78
2021/10/24 04:57:06;;;;;;;9.93;4.32;;;;;;;4.37;73.77;100932.34;1088483;54;20034;-78
2021/10/24 04:58:12;;;;;;;8.18;4.35;;;;;;;4.39;73.89;100931.41;1088434;54;20022;-79
2021/10/24 04:59:18;;;;;;;6.70;4.32;;;;;;;4.32;73.86;100929.09;1088315;54;20754;-77
2021/10/24 05:00:23;;;;;;;8.15;4.82;;;;;;;4.33;73.96;100929.94;1088421;54;20717;-78
2021/10/24 05:01:35;;;;;;;8.45;4.70;;;;;;;4.31;74.05;100923.88;1088420;54;20035;-78
2021/10/24 05:02:39;;;;;;;7.78;4.80;;;;;;;4.27;74.17;100928.50;1088439;54;20030;-79
2021/10/24 05:03:48;;;;;;;6.65;4.65;;;;;;;4.27;73.92;100927.63;1088470;54;20031;-80
2021/10/24 05:04:53;;;;;;;10.02;5.07;;;;;;;4.31;74.13;100926.53;1088425;54;20099;-81
2021/10/24 05:06:08;;;;;;;6.57;4.15;;;;;;;4.29;74.28;100929.28;1088415;54;20014;-79
2021/10/24 05:07:12;;;;;;;8.20;4.18;;;;;;;4.36;74.16;100927.13;1092393;39;20701;-78
2021/10/24 05:08:14;;;;;;;7.15;4.10;;;;;;;4.36;74.04;100924.47;1088403;54;20061;-79
2021/10/24 05:09:19;;;;;;;7.88;4.60;;;;;;;4.35;73.93;100920.97;1088209;54;21440;-78
2021/10/24 05:10:21;;;;;;;7.95;4.13;;;;;;;4.38;73.90;100919.97;1088330;54;20046;-79
2021/10/24 05:11:56;;;;;;;7.80;4.40;;;;;;;4.39;73.75;100919.03;1088463;54;20034;-79
2021/10/24 05:13:01;;;;;;;8.38;4.47;;;;;;;4.31;73.85;100910.66;1088462;54;20033;-82
2021/10/24 05:14:07;;;;;;;7.72;4.43;;;;;;;4.34;74.07;100926.38;1088423;54;20035;-79
2021/10/24 05:15:12;;;;;;;10.52;4.72;;;;;;;4.21;74.27;100918.22;1088350;54;20018;-80
2021/10/24 05:16:14;;;;;;;7.35;5.00;;;;;;;4.25;74.32;100921.56;1088376;54;20023;-81
2021/10/24 05:17:27;;;;;;;11.40;5.00;;;;;;;4.25;74.11;100918.94;1088403;54;20026;-80
2021/10/24 05:18:29;;;;;;;8.18;4.60;;;;;;;4.23;73.96;100916.34;1088444;54;20039;-80
2021/10/24 05:19:34;;;;;;;8.13;4.22;;;;;;;4.31;73.90;100915.94;1088401;54;20045;-80
2021/10/24 05:20:35;;;;;;;9.55;4.97;;;;;;;4.33;73.90;100906.97;1097033;46;20063;-80
2021/10/24 05:21:42;;;;;;;7.25;4.40;;;;;;;4.36;73.68;100906.81;1088334;54;20695;-79
2021/10/24 05:22:44;;;;;;;7.25;4.35;;;;;;;4.41;73.59;100911.84;1088433;54;20026;-78
2021/10/24 05:23:49;;;;;;;6.65;4.57;;;;;;;4.42;73.67;100907.41;1088388;54;20038;-78
2021/10/24 05:24:51;;;;;;;9.98;4.57;;;;;;;4.40;73.56;100912.78;1088445;54;20034;-79
2021/10/24 05:26:10;;;;;;;8.70;4.32;;;;;;;4.39;73.65;100908.44;1088354;54;20762;-80
2021/10/24 05:27:13;;;;;;;8.77;4.57;;;;;;;4.39;73.47;100911.06;1088341;54;20018;-80
2021/10/24 05:28:22;;;;;;;7.88;4.25;;;;;;;4.39;73.80;100910.25;1088386;54;20082;-79
2021/10/24 05:29:23;;;;;;;7.72;4.10;;;;;;;4.31;73.78;100914.13;1088380;54;20019;-79
2021/10/24 05:30:33;;;;;;;7.10;4.32;;;;;;;4.31;73.90;100910.66;1088469;54;20019;-80
2021/10/24 05:31:35;;;;;;;7.10;4.50;;;;;;;4.31;73.88;100908.00;1088434;54;20054;-78
2021/10/24 05:32:40;;;;;;;8.15;4.53;;;;;;;4.31;73.99;100910.66;1088415;54;20046;-79
2021/10/24 05:33:42;;;;;;;6.63;3.88;;;;;;;4.34;74.05;100900.75;1088344;54;20034;-78
2021/10/24 05:34:46;;;;;;;7.00;4.15;;;;;;;4.33;73.81;100899.03;1088445;54;20014;-79
2021/10/24 05:35:49;;;;;;;8.52;4.20;;;;;;;4.33;73.82;100903.47;1090125;39;20321;-78
2021/10/24 05:36:54;;;;;;;7.32;4.10;;;;;;;4.33;73.82;100900.84;1088394;54;20061;-79
2021/10/24 05:37:56;;;;;;;7.22;4.07;;;;;;;4.34;74.04;100907.84;1088317;54;20041;-78
2021/10/24 05:40:48;;;;;;;8.73;4.47;;;;;;;4.34;73.82;100903.38;1088437;54;20023;-80
2021/10/24 05:42:24;;;;;;;6.57;4.18;;;;;;;4.34;73.85;100905.19;1088402;54;20023;-77
2021/10/24 05:43:29;;;;;;;6.93;4.18;;;;;;;4.32;73.77;100899.13;1088332;54;20034;-79
2021/10/24 05:44:36;;;;;;;7.05;3.80;;;;;;;4.31;73.65;100897.41;1088413;54;20794;-80
2021/10/24 05:47:28;;;;;;;8.10;3.83;;;;;;;4.33;73.45;100908.78;1088382;54;19999;-78
2021/10/24 05:48:30;;;;;;;7.20;3.88;;;;;;;4.37;73.52;100905.00;1088373;54;20039;-79
2021/10/24 05:49:34;;;;;;;7.13;3.67;;;;;;;4.39;73.46;100897.00;1088277;54;20078;-78
2021/10/24 05:50:36;;;;;;;5.65;3.10;;;;;;;4.43;73.19;100894.09;1088444;54;20021;-78
2021/10/24 05:51:52;;;;;;;10.32;3.92;;;;;;;4.37;73.40;100897.94;1088688;54;20731;-78
2021/10/24 05:53:08;;;;;;;5.97;3.60;;;;;;;4.44;73.21;100895.78;1088706;54;20034;-79
2021/10/24 05:54:10;;;;;;;6.15;3.45;;;;;;;4.45;73.43;100896.66;1088588;54;20037;-78
2021/10/24 05:55:21;;;;;;;7.35;4.03;;;;;;;4.46;73.46;100891.25;1088679;54;20015;-79
2021/10/24 05:56:22;;;;;;;;;;;;;;;4.45;73.41;100897.50;1088803;54;20098;-79
2021/10/24 05:57:35;;;;;;;5.97;3.72;;;;;;;4.48;73.30;100889.38;1088643;54;19927;-80
2021/10/24 05:58:42;;;;;;;11.35;4.10;;;;;;;4.46;72.98;100887.78;1088756;54;20019;-77
2021/10/24 05:59:49;;;;;;;6.18;3.80;;;;;;;4.44;73.29;100892.28;1089369;39;20671;-79
2021/10/24 06:00:54;;;;;;;9.20;4.30;;;;;;;4.39;73.42;100895.19;1088658;54;20026;-78
2021/10/24 06:01:58;;;;;;;7.53;4.03;;;;;;;4.40;73.34;100896.91;1088703;54;20039;-78
2021/10/24 06:03:06;;;;;;;7.28;4.82;;;;;;;4.38;73.47;100888.19;1088743;54;20074;-78
2021/10/24 06:04:08;;;;;;;10.70;5.00;;;;;;;4.44;73.39;100893.13;1088720;54;20031;-81
2021/10/24 06:05:25;;;;;;;7.88;4.50;;;;;;;4.49;73.24;100899.03;1088665;54;20034;-78
2021/10/24 06:06:27;;;;;;;6.93;4.30;;;;;;;4.51;73.11;100891.88;1088665;54;20034;-78
2021/10/24 06:07:36;;;;;;;8.07;3.95;;;;;;;4.57;72.90;100895.97;1088635;54;20034;-78
2021/10/24 06:08:41;;;;;;;6.97;4.13;;;;;;;4.57;73.09;100889.81;1088681;54;20025;-78
2021/10/24 06:09:51;;;;;;;6.45;3.83;;;;;;;4.47;73.07;100898.28;1088319;54;20023;-78
2021/10/24 06:10:55;;;;;;;6.68;4.18;;;;;;;4.49;73.02;100891.09;1088422;54;20041;-78
2021/10/24 06:12:02;;;;;;;9.50;4.00;;;;;;;4.44;72.98;100895.78;1088039;54;20019;-78
2021/10/24 06:13:04;;;;;;;8.68;4.72;;;;;;;4.41;73.05;100893.31;1088686;54;20734;-79
2021/10/24 06:14:12;;;;;;;6.50;4.28;;;;;;;4.50;72.89;100898.09;1089799;39;20614;-77
2021/10/24 06:15:16;;;;;;;6.20;3.83;;;;;;;4.50;73.02;100900.75;1090240;39;20653;-79
2021/10/24 06:16:30;;;;;;;9.27;5.10;;;;;;;4.51;73.12;100897.19;1088631;54;20054;-79
2021/10/24 06:17:32;;;;;;;7.80;4.38;;;;;;;4.55;72.96;100899.63;1088653;54;20026;-78
2021/10/24 06:18:40;;;;;;;9.13;4.47;;;;;;;4.52;72.67;100893.59;1088741;54;20018;-78
2021/10/24 06:19:45;;;;;;;8.93;4.80;;;;;;;4.56;72.88;100890.75;1088646;54;20684;-78
2021/10/24 06:20:50;;;;;;;8.90;4.78;;;;;;;4.51;72.81;100901.59;1096150;39;20650;-79
2021/10/24 06:23:41;;;;;;;7.93;4.97;;;;;;;4.28;73.42;100913.44;1088763;54;20027;-80
2021/10/24 06:24:43;;;;;;;8.13;5.68;;;;;;;4.24;73.51;100915.41;1088660;54;20030;-79
2021/10/24 06:25:49;;;;;;;8.18;4.68;;;;;;;4.17;73.78;100912.22;1089326;46;20079;-79
2021/10/24 06:26:50;;;;;;;10.38;5.35;;;;;;;4.22;73.60;100910.22;1088680;54;20019;-78
2021/10/24 06:28:18;;;;;;;9.18;5.05;;;;;;;4.20;73.53;100904.13;1088588;54;20025;-79
2021/10/24 06:29:22;;;;;;;7.93;4.57;;;;;;;4.24;73.61;100909.28;1088626;54;20015;-78
2021/10/24 06:30:29;;;;;;;8.10;5.05;;;;;;;4.24;73.50;100912.75;1088592;54;20015;-78
2021/10/24 06:31:32;;;;;;;7.85;4.45;;;;;;;4.27;73.31;100903.78;1088634;54;20062;-79
2021/10/24 06:32:54;;;;;;;7.43;4.05;;;;;;;4.30;73.49;100907.13;1088615;54;20038;-78
2021/10/24 06:33:58;;;;;;;8.13;4.97;;;;;;;4.31;73.66;100905.34;1088506;54;20043;-79
2021/10/24 06:35:02;;;;;;;8.95;5.03;;;;;;;4.35;73.38;100918.34;1088638;54;20727;-77
2021/10/24 06:36:07;;;;;;;8.43;4.97;;;;;;;4.34;73.37;100905.19;1088576;54;20030;-80
2021/10/24 06:37:11;;;;;;;11.73;5.50;;;;;;;4.40;73.30;100912.78;1088701;54;20041;-77
2021/10/24 06:38:17;;;;;;;6.63;4.32;;;;;;;4.49;73.13;100916.72;1088537;54;20802;-79
2021/10/24 06:39:19;;;;;;;11.43;4.43;;;;;;;4.53;72.87;100913.81;1088503;54;20022;-78
2021/10/24 06:40:24;;;;;;;8.35;4.35;;;;;;;4.57;72.86;100908.34;1088574;54;20029;-78
2021/10/24 06:41:29;;;;;;;7.88;4.53;;;;;;;4.50;72.93;100913.13;1088566;54;20034;-81
2021/10/24 06:42:54;;;;;;;7.60;4.50;;;;;;;4.57;72.63;100916.31;1088552;54;20120;-78
2021/10/24 06:43:56;;;;;;;7.78;4.43;;;;;;;4.58;72.69;100908.25;1088608;54;20038;-78
2021/10/24 06:45:20;;;;;;;8.18;4.30;;;;;;;4.57;72.60;100908.34;1088568;54;20033;-79
2021/10/24 06:46:24;;;;;;;8.15;4.53;;;;;;;4.64;72.46;100915.00;1088539;54;20018;-79
2021/10/24 06:48:04;;;;;;;6.90;3.95;;;;;;;4.72;72.25;100904.00;1088611;54;20019;-78
2021/10/24 06:49:06;;;;;;;8.13;4.47;;;;;;;4.77;72.45;100909.91;1088540;54;20046;-81
2021/10/24 06:50:37;;;;;;;6.35;3.80;;;;;;;4.81;72.22;100914.06;1091806;46;20041;-79
2021/10/24 06:51:41;;;;;;;;;;;;;;;4.82;72.44;100911.34;1088677;54;20022;-78
2021/10/24 06:53:03;;;;;;;5.32;3.13;;;;;;;4.89;72.15;100911.84;1088647;54;19927;-81
2021/10/24 06:54:05;;;;;;;5.30;3.33;;;;;;;4.93;71.95;100915.19;1088605;54;20022;-80
2021/10/24 06:55:28;;;;;;;5.93;3.30;;;;;;;4.99;71.85;100913.03;1093971;39;20576;-78
2021/10/24 06:56:30;;;;;;;5.45;2.97;;;;;;;5.06;71.96;100908.25;1088590;54;20039;-80
2021/10/24 06:57:57;;;;;;;6.63;3.60;;;;;;;5.06;71.40;100907.38;1089683;46;20031;-79
2021/10/24 06:59:01;;;;;;;5.63;3.05;;;;;;;5.14;71.36;100915.75;1095157;39;20675;-77
2021/10/24 07:00:05;;;;;;;5.53;3.03;;;;;;;5.18;71.20;100911.13;1088333;54;20039;-79
2021/10/24 07:01:10;;;;;;;5.22;3.15;;;;;;;5.23;71.28;100912.59;1088226;54;20018;-79
2021/10/24 07:02:20;;;;;;;6.97;3.67;;;;;;;5.25;70.74;100909.81;1088273;54;20023;-78
2021/10/24 07:03:25;;;;;;;6.93;3.30;;;;;;;5.29;70.80;100914.03;1088300;54;20026;-80
2021/10/24 07:04:27;;;;;;;7.07;3.67;;;;;;;5.34;70.80;100911.94;1088187;54;20019;-79
2021/10/24 07:05:36;;;;;;;7.35;3.53;;;;;;;5.34;70.21;100903.16;1088296;54;20054;-79
2021/10/24 07:06:45;;;;;;;8.90;3.55;;;;;;;5.30;69.98;100907.75;1088192;54;20018;-79
2021/10/24 07:07:50;;;;;;;8.65;4.32;;;;;;;5.34;69.99;100911.94;1088364;54;20026;-81
2021/10/24 07:08:56;;;;;;;8.48;3.95;;;;;;;5.28;69.74;100910.50;1088262;54;20022;-79
2021/10/24 07:09:58;;;;;;;8.02;3.88;;;;;;;5.31;70.11;100906.81;1088231;54;20014;-79
2021/10/24 07:11:02;;;;;;;7.18;3.53;;;;;;;5.35;69.89;100897.75;1088309;54;20019;-79
2021/10/24 07:12:10;;;;;;;6.20;3.13;;;;;;;5.40;69.97;100908.09;1089391;39;20775;-80
2021/10/24 07:13:36;;;;;;;5.93;3.17;;;;;;;5.35;69.23;100902.19;1088369;54;20019;-77
2021/10/24 07:14:38;;;;;;;7.68;3.60;;;;;;;5.35;69.48;100907.47;1088280;54;20041;-80